createdAt,value
2019-01-28T00:00:27.023Z,-1.76
2019-01-28T00:02:53.923Z,-1.68
2019-01-28T00:05:20.632Z,-1.65
2019-01-28T00:07:47.263Z,-1.72
2019-01-28T00:10:13.860Z,-1.72
2019-01-28T00:12:40.637Z,-1.69
2019-01-28T00:15:07.220Z,-1.77
2019-01-28T00:17:33.822Z,-1.71
2019-01-28T00:20:00.428Z,-1.71
2019-01-28T00:22:27.099Z,-1.65
2019-01-28T00:24:53.699Z,-1.68
2019-01-28T00:27:20.395Z,-1.72
2019-01-28T00:29:47.029Z,-1.75
2019-01-28T00:32:13.620Z,-1.72
2019-01-28T00:34:40.173Z,-1.69
2019-01-28T00:37:06.837Z,-1.74
2019-01-28T00:39:33.592Z,-1.75
2019-01-28T00:42:00.198Z,-1.79
2019-01-28T00:44:26.820Z,-1.83
2019-01-28T00:46:53.401Z,-1.79
2019-01-28T00:49:19.975Z,-1.78
2019-01-28T00:51:46.599Z,-1.82
2019-01-28T00:54:13.278Z,-1.75
2019-01-28T00:56:39.940Z,-1.75
2019-01-28T00:59:06.589Z,-1.89
2019-01-28T01:01:33.549Z,-1.94
2019-01-28T01:04:00.647Z,-1.94
2019-01-28T01:06:27.668Z,-1.90
2019-01-28T01:08:54.732Z,-1.87
2019-01-28T01:11:21.715Z,-1.98
2019-01-28T01:13:48.821Z,-2.00
2019-01-28T01:16:15.793Z,-2.00
2019-01-28T01:18:42.847Z,-1.97
2019-01-28T01:21:10.193Z,-2.04
2019-01-28T01:23:37.396Z,-2.06
2019-01-28T01:26:04.371Z,-2.01
2019-01-28T01:28:31.351Z,-2.03
2019-01-28T01:30:58.539Z,-2.18
2019-01-28T01:33:25.540Z,-2.25
2019-01-28T01:35:52.498Z,-2.37
2019-01-28T01:38:19.463Z,-2.27
2019-01-28T01:40:46.410Z,-2.29
2019-01-28T01:43:13.529Z,-2.23
2019-01-28T01:45:40.619Z,-2.28
2019-01-28T01:48:07.708Z,-2.20
2019-01-28T01:50:34.789Z,-2.20
2019-01-28T01:53:01.877Z,-2.17
2019-01-28T01:55:29.019Z,-2.06
2019-01-28T01:57:56.036Z,-2.05
2019-01-28T02:00:23.123Z,-2.22
2019-01-28T02:02:49.789Z,-2.22
2019-01-28T02:05:16.678Z,-2.33
2019-01-28T02:07:43.810Z,-2.48
2019-01-28T02:10:13.528Z,-2.45
2019-01-28T02:12:40.642Z,-2.63
2019-01-28T02:15:12.519Z,-2.61
2019-01-28T02:17:39.568Z,-2.63
2019-01-28T02:20:09.003Z,-2.65
2019-01-28T02:22:36.494Z,-2.65
2019-01-28T02:25:07.648Z,-2.69
2019-01-28T02:27:34.652Z,-2.65
2019-01-28T02:30:03.938Z,-2.52
2019-01-28T02:32:31.141Z,-2.49
2019-01-28T02:34:58.191Z,-2.55
2019-01-28T02:37:25.384Z,-2.63
2019-01-28T02:39:52.250Z,-2.75
2019-01-28T02:42:19.332Z,-2.65
2019-01-28T02:44:46.342Z,-2.63
2019-01-28T02:47:16.496Z,-2.64
2019-01-28T02:49:43.453Z,-2.62
2019-01-28T02:52:10.423Z,-2.70
2019-01-28T02:54:37.261Z,-2.73
2019-01-28T02:57:04.106Z,-2.67
2019-01-28T02:59:31.385Z,-2.70
2019-01-28T03:01:59.192Z,-2.82
2019-01-28T03:04:26.480Z,-2.92
2019-01-28T03:06:53.377Z,-2.90
2019-01-28T03:09:20.299Z,-2.90
2019-01-28T03:11:47.295Z,-2.92
2019-01-28T03:14:14.401Z,-2.97
2019-01-28T03:16:41.379Z,-2.95
2019-01-28T03:19:08.336Z,-3.04
2019-01-28T03:21:35.422Z,-2.89
2019-01-28T03:24:02.592Z,-2.72
2019-01-28T03:26:29.565Z,-2.73
2019-01-28T03:28:56.628Z,-2.67
2019-01-28T03:31:23.712Z,-2.62
2019-01-28T03:33:50.802Z,-2.40
2019-01-28T03:36:17.498Z,-2.52
2019-01-28T03:38:44.494Z,-2.55
2019-01-28T03:41:11.614Z,-2.38
2019-01-28T03:43:38.561Z,-2.44
2019-01-28T03:46:05.529Z,-2.53
2019-01-28T03:48:32.812Z,-2.38
2019-01-28T03:50:59.726Z,-2.28
2019-01-28T03:53:26.972Z,-2.20
2019-01-28T03:55:53.951Z,-2.35
2019-01-28T03:58:20.913Z,-2.30
2019-01-28T04:00:48.050Z,-2.21
2019-01-28T04:03:16.280Z,-2.07
2019-01-28T04:05:43.275Z,-2.06
2019-01-28T04:08:10.243Z,-1.99
2019-01-28T04:10:37.341Z,-2.04
2019-01-28T04:13:04.399Z,-1.95
2019-01-28T04:15:32.565Z,-2.02
2019-01-28T04:17:59.842Z,-1.98
2019-01-28T04:20:27.282Z,-1.89
2019-01-28T04:22:54.277Z,-1.88
2019-01-28T04:25:21.342Z,-1.89
2019-01-28T04:27:48.367Z,-1.82
2019-01-28T04:30:19.554Z,-1.75
2019-01-28T04:32:46.613Z,-1.78
2019-01-28T04:35:13.618Z,-1.71
2019-01-28T04:37:41.228Z,-1.71
2019-01-28T04:40:11.701Z,-1.64
2019-01-28T04:42:38.664Z,-1.63
2019-01-28T04:45:11.281Z,-1.66
2019-01-28T04:47:38.190Z,-1.59
2019-01-28T04:50:10.020Z,-1.50
2019-01-28T04:52:37.058Z,-1.50
2019-01-28T04:55:06.290Z,-1.49
2019-01-28T04:57:33.164Z,-1.35
2019-01-28T05:00:00.271Z,-1.47
2019-01-28T05:02:27.268Z,-1.54
2019-01-28T05:04:54.319Z,-1.53
2019-01-28T05:07:21.339Z,-1.51
2019-01-28T05:09:48.250Z,-1.48
2019-01-28T05:12:15.558Z,-1.45
2019-01-28T05:14:42.219Z,-1.49
2019-01-28T05:17:09.067Z,-1.46
2019-01-28T05:19:36.040Z,-1.53
2019-01-28T05:22:02.989Z,-1.48
2019-01-28T05:24:29.682Z,-1.49
2019-01-28T05:26:56.536Z,-1.65
2019-01-28T05:29:23.405Z,-1.63
2019-01-28T05:31:50.373Z,-1.61
2019-01-28T05:34:17.321Z,-1.66
2019-01-28T05:36:44.301Z,-1.62
2019-01-28T05:39:11.189Z,-1.68
2019-01-28T05:41:38.166Z,-1.72
2019-01-28T05:44:05.196Z,-1.75
2019-01-28T05:46:33.576Z,-1.82
2019-01-28T05:49:00.581Z,-1.77
2019-01-28T05:51:27.561Z,-1.77
2019-01-28T05:53:54.569Z,-1.84
2019-01-28T05:56:21.548Z,-1.89
2019-01-28T05:58:48.687Z,-1.89
2019-01-28T06:01:15.876Z,-1.93
2019-01-28T06:03:42.676Z,-2.07
2019-01-28T06:06:09.297Z,-2.11
2019-01-28T06:08:36.226Z,-2.20
2019-01-28T06:11:03.254Z,-2.22
2019-01-28T06:13:30.272Z,-2.25
2019-01-28T06:15:57.283Z,-2.29
2019-01-28T06:18:24.020Z,-2.32
2019-01-28T06:20:50.610Z,-2.24
2019-01-28T06:23:17.229Z,-2.24
2019-01-28T06:25:43.857Z,-2.28
2019-01-28T06:28:10.406Z,-2.14
2019-01-28T06:30:37.010Z,-2.22
2019-01-28T06:33:03.699Z,-2.11
2019-01-28T06:35:30.246Z,-2.13
2019-01-28T06:37:56.845Z,-2.14
2019-01-28T06:40:27.611Z,-2.16
2019-01-28T06:42:55.191Z,-2.16
2019-01-28T06:45:21.794Z,-2.18
2019-01-28T06:47:48.422Z,-2.16
2019-01-28T06:50:18.345Z,-2.30
2019-01-28T06:52:44.953Z,-2.21
2019-01-28T06:55:11.539Z,-2.18
2019-01-28T06:57:38.167Z,-2.22
2019-01-28T07:00:10.543Z,-2.32
2019-01-28T07:02:37.142Z,-2.24
2019-01-28T07:05:04.404Z,-2.17
2019-01-28T07:07:31.181Z,-2.19
2019-01-28T07:09:57.789Z,-2.19
2019-01-28T07:12:24.365Z,-2.33
2019-01-28T07:14:50.977Z,-2.33
2019-01-28T07:17:19.038Z,-2.39
2019-01-28T07:19:45.635Z,-2.34
2019-01-28T07:22:12.252Z,-2.44
2019-01-28T07:24:38.901Z,-2.50
2019-01-28T07:27:05.497Z,-2.46
2019-01-28T07:29:32.378Z,-2.52
2019-01-28T07:32:00.102Z,-2.38
2019-01-28T07:34:26.915Z,-2.39
2019-01-28T07:36:53.522Z,-2.41
2019-01-28T07:39:20.121Z,-2.34
2019-01-28T07:41:46.750Z,-2.27
2019-01-28T07:44:13.329Z,-2.28
2019-01-28T07:46:39.904Z,-2.29
2019-01-28T07:49:06.598Z,-2.28
2019-01-28T07:51:33.438Z,-2.33
2019-01-28T07:54:00.042Z,-2.27
2019-01-28T07:56:26.827Z,-2.41
2019-01-28T07:58:53.405Z,-2.31
2019-01-28T08:01:20.001Z,-2.19
2019-01-28T08:03:46.683Z,-2.13
2019-01-28T08:06:13.266Z,-2.10
2019-01-28T08:08:39.884Z,-2.19
2019-01-28T08:11:06.462Z,-2.15
2019-01-28T08:13:33.272Z,-2.06
2019-01-28T08:15:59.927Z,-1.96
2019-01-28T08:18:26.517Z,-1.78
2019-01-28T08:20:53.195Z,-1.66
2019-01-28T08:23:19.821Z,-1.48
2019-01-28T08:25:46.390Z,-1.52
2019-01-28T08:28:12.983Z,-1.34
2019-01-28T08:30:39.604Z,-1.23
2019-01-28T08:33:06.327Z,-1.08
2019-01-28T08:35:33.533Z,-1.13
2019-01-28T08:38:00.276Z,-1.12
2019-01-28T08:40:26.957Z,-0.84
2019-01-28T08:42:53.541Z,-0.68
2019-01-28T08:45:20.296Z,-0.57
2019-01-28T08:47:47.042Z,-0.44
2019-01-28T08:50:18.073Z,-0.37
2019-01-28T08:52:44.850Z,-0.37
2019-01-28T08:55:15.631Z,-0.15
2019-01-28T08:57:42.313Z,-0.02
2019-01-28T09:00:14.676Z,0.13
2019-01-28T09:02:41.466Z,0.01
2019-01-28T09:05:09.991Z,0.03
2019-01-28T09:07:36.723Z,0.29
2019-01-28T09:10:08.660Z,0.33
2019-01-28T09:12:35.267Z,0.34
2019-01-28T09:15:05.785Z,0.40
2019-01-28T09:17:32.658Z,0.34
2019-01-28T09:19:59.372Z,0.46
2019-01-28T09:22:26.012Z,0.55
2019-01-28T09:24:52.584Z,0.42
2019-01-28T09:27:19.148Z,0.65
2019-01-28T09:29:45.789Z,0.74
2019-01-28T09:32:12.371Z,0.92
2019-01-28T09:34:39.056Z,1.12
2019-01-28T09:37:05.756Z,1.14
2019-01-28T09:39:32.456Z,1.30
2019-01-28T09:41:59.042Z,1.34
2019-01-28T09:44:25.610Z,1.30
2019-01-28T09:46:52.228Z,1.33
2019-01-28T09:49:18.786Z,1.41
2019-01-28T09:51:45.356Z,1.55
2019-01-28T09:54:11.954Z,1.74
2019-01-28T09:56:38.564Z,1.88
2019-01-28T09:59:05.404Z,2.00
2019-01-28T10:01:32.123Z,2.12
2019-01-28T10:03:58.999Z,2.22
2019-01-28T10:06:25.824Z,2.19
2019-01-28T10:08:52.428Z,2.06
2019-01-28T10:11:19.010Z,2.31
2019-01-28T10:13:45.633Z,2.56
2019-01-28T10:16:12.229Z,2.71
2019-01-28T10:18:41.896Z,2.73
2019-01-28T10:21:07.384Z,2.87
2019-01-28T10:23:34.051Z,2.85
2019-01-28T10:26:04.703Z,3.01
2019-01-28T10:28:31.956Z,2.86
2019-01-28T10:30:58.523Z,2.93
2019-01-28T10:33:25.129Z,2.91
2019-01-28T10:35:51.703Z,2.90
2019-01-28T10:38:18.294Z,2.97
2019-01-28T10:40:45.162Z,2.85
2019-01-28T10:43:12.075Z,2.82
2019-01-28T10:45:38.636Z,2.96
2019-01-28T10:48:10.067Z,3.03
2019-01-28T10:50:39.713Z,3.06
2019-01-28T10:53:08.288Z,3.15
2019-01-28T10:55:34.890Z,2.67
2019-01-28T10:58:01.736Z,2.43
2019-01-28T11:00:34.071Z,2.32
2019-01-28T11:03:00.885Z,2.49
2019-01-28T11:05:27.653Z,2.49
2019-01-28T11:07:54.221Z,2.71
2019-01-28T11:10:24.948Z,2.90
2019-01-28T11:12:51.571Z,2.97
2019-01-28T11:15:24.046Z,3.14
2019-01-28T11:17:51.622Z,3.15
2019-01-28T11:20:18.330Z,3.25
2019-01-28T11:22:45.291Z,3.06
2019-01-28T11:25:16.639Z,2.92
2019-01-28T11:27:44.699Z,2.82
2019-01-28T11:30:17.381Z,2.72
2019-01-28T11:32:44.110Z,2.71
2019-01-28T11:35:10.792Z,2.65
2019-01-28T11:37:37.830Z,2.53
2019-01-28T11:40:10.418Z,2.53
2019-01-28T11:42:37.230Z,2.46
2019-01-28T11:45:09.723Z,2.18
2019-01-28T11:47:36.376Z,2.09
2019-01-28T11:50:07.389Z,1.87
2019-01-28T11:52:34.047Z,1.88
2019-01-28T11:55:00.658Z,1.94
2019-01-28T11:57:27.295Z,1.98
2019-01-28T11:59:53.936Z,2.15
2019-01-28T12:02:20.616Z,2.46
2019-01-28T12:04:47.189Z,2.50
2019-01-28T12:07:13.798Z,2.69
2019-01-28T12:09:40.367Z,2.59
2019-01-28T12:12:06.998Z,2.57
2019-01-28T12:14:33.693Z,2.50
2019-01-28T12:17:00.455Z,2.57
2019-01-28T12:19:27.048Z,2.38
2019-01-28T12:21:54.550Z,2.22
2019-01-28T12:24:21.181Z,2.22
2019-01-28T12:26:47.856Z,2.21
2019-01-28T12:29:14.553Z,2.23
2019-01-28T12:31:41.089Z,2.20
2019-01-28T12:34:07.669Z,2.21
2019-01-28T12:36:34.378Z,2.28
2019-01-28T12:39:01.147Z,2.06
2019-01-28T12:41:27.783Z,2.04
2019-01-28T12:43:54.396Z,1.95
2019-01-28T12:46:20.976Z,1.92
2019-01-28T12:48:47.611Z,1.95
2019-01-28T12:51:14.277Z,1.81
2019-01-28T12:53:40.925Z,1.64
2019-01-28T12:56:07.610Z,1.70
2019-01-28T12:59:31.109Z,1.73
2019-01-28T13:02:00.191Z,1.72
2019-01-28T13:04:26.880Z,1.73
2019-01-28T13:06:53.462Z,1.75
2019-01-28T13:09:20.182Z,1.72
2019-01-28T13:11:46.820Z,1.82
2019-01-28T13:14:13.404Z,1.76
2019-01-28T13:16:40.229Z,1.78
2019-01-28T13:19:06.847Z,1.75
2019-01-28T13:21:33.456Z,1.68
2019-01-28T13:24:00.148Z,1.71
2019-01-28T13:26:26.735Z,1.64
2019-01-28T13:28:53.308Z,1.62
2019-01-28T13:31:19.861Z,1.70
2019-01-28T13:33:46.454Z,1.82
2019-01-28T13:36:13.051Z,1.84
2019-01-28T13:38:39.778Z,1.83
2019-01-28T13:41:06.500Z,1.87
2019-01-28T13:43:33.258Z,1.92
2019-01-28T13:46:00.029Z,1.99
2019-01-28T13:48:29.989Z,1.69
2019-01-28T13:50:56.654Z,1.73
2019-01-28T13:53:23.259Z,1.64
2019-01-28T13:55:49.831Z,1.72
2019-01-28T13:58:17.536Z,1.76
2019-01-28T14:00:44.296Z,1.76
2019-01-28T14:03:10.984Z,1.66
2019-01-28T14:05:38.883Z,1.61
2019-01-28T14:08:05.702Z,1.54
2019-01-28T14:10:33.584Z,1.54
2019-01-28T14:13:00.326Z,1.39
2019-01-28T14:15:31.320Z,1.43
2019-01-28T14:17:57.932Z,1.51
2019-01-28T14:20:28.214Z,1.37
2019-01-28T14:22:54.852Z,1.50
2019-01-28T14:25:21.557Z,1.49
2019-01-28T14:27:49.972Z,1.47
2019-01-28T14:30:22.399Z,1.42
2019-01-28T14:32:48.983Z,1.54
2019-01-28T14:35:16.947Z,1.43
2019-01-28T14:37:43.574Z,1.33
2019-01-28T14:40:15.904Z,1.26
2019-01-28T14:42:42.694Z,1.23
2019-01-28T14:45:11.279Z,0.98
2019-01-28T14:47:37.933Z,1.02
2019-01-28T14:50:10.328Z,0.97
2019-01-28T14:52:37.074Z,0.90
2019-01-28T14:55:05.465Z,0.96
2019-01-28T14:57:32.435Z,0.89
2019-01-28T14:59:59.090Z,0.93
2019-01-28T15:02:26.773Z,0.89
2019-01-28T15:04:53.349Z,0.76
2019-01-28T15:07:19.970Z,0.89
2019-01-28T15:09:46.517Z,0.74
2019-01-28T15:12:13.102Z,0.75
2019-01-28T15:14:39.653Z,0.62
2019-01-28T15:17:06.207Z,0.51
2019-01-28T15:19:33.045Z,0.48
2019-01-28T15:21:59.912Z,0.58
2019-01-28T15:24:27.631Z,0.45
2019-01-28T15:26:54.351Z,0.40
2019-01-28T15:29:21.047Z,0.38
2019-01-28T15:31:47.607Z,0.47
2019-01-28T15:34:14.236Z,0.31
2019-01-28T15:36:40.930Z,0.42
2019-01-28T15:39:08.058Z,0.47
2019-01-28T15:41:34.835Z,0.47
2019-01-28T15:44:01.405Z,0.49
2019-01-28T15:46:28.070Z,0.49
2019-01-28T15:48:54.630Z,0.54
2019-01-28T15:51:21.226Z,0.55
2019-01-28T15:53:47.916Z,0.46
2019-01-28T15:56:14.547Z,0.48
2019-01-28T15:58:41.127Z,0.54
2019-01-28T16:01:07.699Z,0.46
2019-01-28T16:03:35.590Z,0.36
2019-01-28T16:06:02.345Z,0.39
2019-01-28T16:08:29.024Z,0.33
2019-01-28T16:10:55.862Z,0.42
2019-01-28T16:13:22.575Z,0.50
2019-01-28T16:15:49.618Z,0.47
2019-01-28T16:18:17.305Z,0.41
2019-01-28T16:20:43.958Z,0.37
2019-01-28T16:23:10.562Z,0.41
2019-01-28T16:25:37.163Z,0.46
2019-01-28T16:28:04.313Z,0.42
2019-01-28T16:30:31.080Z,0.40
2019-01-28T16:32:57.892Z,0.39
2019-01-28T16:35:24.629Z,0.46
2019-01-28T16:37:52.360Z,0.39
2019-01-28T16:40:25.180Z,0.33
2019-01-28T16:42:52.029Z,0.31
2019-01-28T16:45:18.634Z,0.29
2019-01-28T16:47:45.315Z,0.30
2019-01-28T16:50:17.593Z,0.28
2019-01-28T16:52:44.406Z,0.26
2019-01-28T16:55:13.574Z,0.17
2019-01-28T16:57:40.817Z,0.23
2019-01-28T17:00:13.108Z,0.34
2019-01-28T17:02:39.808Z,0.39
2019-01-28T17:05:10.508Z,0.40
2019-01-28T17:07:37.119Z,0.40
2019-01-28T17:10:08.787Z,0.36
2019-01-28T17:12:35.453Z,0.39
2019-01-28T17:15:05.813Z,0.37
2019-01-28T17:17:32.576Z,0.44
2019-01-28T17:20:00.328Z,0.39
2019-01-28T17:22:30.410Z,0.40
2019-01-28T17:24:57.296Z,0.52
2019-01-28T17:27:24.039Z,0.58
2019-01-28T17:29:50.605Z,0.61
2019-01-28T17:32:17.419Z,0.52
2019-01-28T17:34:44.576Z,0.26
2019-01-28T17:37:11.843Z,-0.02
2019-01-28T17:39:38.847Z,0.10
2019-01-28T17:42:05.902Z,0.20
2019-01-28T17:44:32.884Z,-0.05
2019-01-28T17:47:00.024Z,-0.11
2019-01-28T17:49:26.789Z,-0.23
2019-01-28T17:51:53.408Z,-0.12
2019-01-28T17:54:19.995Z,-0.20
2019-01-28T17:56:46.632Z,-0.22
2019-01-28T17:59:13.370Z,-0.24
2019-01-28T18:01:39.993Z,-0.29
2019-01-28T18:04:06.583Z,-0.30
2019-01-28T18:06:34.523Z,-0.28
2019-01-28T18:09:01.290Z,-0.24
2019-01-28T18:11:28.989Z,-0.26
2019-01-28T18:13:55.603Z,-0.22
2019-01-28T18:16:22.179Z,-0.37
2019-01-28T18:18:48.912Z,-0.25
2019-01-28T18:21:15.559Z,-0.27
2019-01-28T18:23:44.033Z,-0.31
2019-01-28T18:26:10.664Z,-0.27
2019-01-28T18:28:37.348Z,-0.30
2019-01-28T18:31:03.977Z,-0.41
2019-01-28T18:33:30.554Z,-0.40
2019-01-28T18:36:05.136Z,-0.36
2019-01-28T18:38:25.604Z,-0.36
2019-01-28T18:40:52.218Z,-0.39
2019-01-28T18:43:18.778Z,-0.32
2019-01-28T18:45:45.383Z,-0.27
2019-01-28T18:48:13.019Z,-0.40
2019-01-28T18:50:39.629Z,-0.41
2019-01-28T18:53:06.609Z,-0.38
2019-01-28T18:55:33.454Z,-0.36
2019-01-28T18:58:00.151Z,-0.38
2019-01-28T19:00:29.942Z,-0.39
2019-01-28T19:02:56.591Z,-0.41
2019-01-28T19:05:25.814Z,-0.45
2019-01-28T19:07:54.524Z,-0.30
2019-01-28T19:10:23.040Z,-0.26
2019-01-28T19:12:52.749Z,-0.31
2019-01-28T19:15:21.662Z,-0.32
2019-01-28T19:17:50.606Z,-0.31
2019-01-28T19:20:21.537Z,-0.29
2019-01-28T19:22:48.597Z,-0.23
2019-01-28T19:25:16.695Z,-0.24
2019-01-28T19:27:43.832Z,-0.16
2019-01-28T19:30:14.423Z,-0.16
2019-01-28T19:32:44.280Z,-0.30
2019-01-28T19:35:11.777Z,-0.32
2019-01-28T19:37:38.553Z,-0.28
2019-01-28T19:40:10.669Z,-0.31
2019-01-28T19:42:39.133Z,-0.31
2019-01-28T19:45:12.766Z,-0.38
2019-01-28T19:47:39.917Z,-0.36
2019-01-28T19:50:13.211Z,-0.28
2019-01-28T19:52:40.817Z,-0.34
2019-01-28T19:55:11.329Z,-0.27
2019-01-28T19:57:39.064Z,-0.28
2019-01-28T20:00:12.215Z,-0.32
2019-01-28T20:02:39.921Z,-0.16
2019-01-28T20:05:10.180Z,-0.24
2019-01-28T20:07:36.966Z,-0.23
2019-01-28T20:10:08.281Z,-0.26
2019-01-28T20:12:37.551Z,-0.24
2019-01-28T20:15:11.600Z,-0.18
2019-01-28T20:17:38.248Z,-0.23
2019-01-28T20:20:10.583Z,-0.18
2019-01-28T20:22:37.327Z,-0.15
2019-01-28T20:25:08.682Z,-0.20
2019-01-28T20:27:35.357Z,-0.19
2019-01-28T20:30:06.441Z,-0.20
2019-01-28T20:32:33.218Z,-0.23
2019-01-28T20:34:59.816Z,-0.24
2019-01-28T20:37:26.385Z,-0.22
2019-01-28T20:39:53.053Z,-0.16
2019-01-28T20:42:19.775Z,-0.25
2019-01-28T20:44:46.387Z,-0.13
2019-01-28T20:47:13.098Z,-0.13
2019-01-28T20:49:39.709Z,-0.04
2019-01-28T20:52:06.348Z,-0.03
2019-01-28T20:54:33.221Z,-0.01
2019-01-28T20:56:59.801Z,-0.03
2019-01-28T20:59:26.486Z,-0.04
2019-01-28T21:01:53.111Z,-0.10
2019-01-28T21:04:19.664Z,-0.11
2019-01-28T21:06:46.366Z,-0.04
2019-01-28T21:09:13.037Z,-0.02
2019-01-28T21:11:39.610Z,0.06
2019-01-28T21:14:06.366Z,0.17
2019-01-28T21:16:33.220Z,0.16
2019-01-28T21:19:01.193Z,0.09
2019-01-28T21:21:27.788Z,0.13
2019-01-28T21:23:54.367Z,0.15
2019-01-28T21:26:20.944Z,0.07
2019-01-28T21:28:47.591Z,0.04
2019-01-28T21:31:14.152Z,0.03
2019-01-28T21:33:40.731Z,0.05
2019-01-28T21:36:07.340Z,0.09
2019-01-28T21:38:36.001Z,0.04
2019-01-28T21:41:02.790Z,0.18
2019-01-28T21:43:29.861Z,0.13
2019-01-28T21:45:56.575Z,0.12
2019-01-28T21:48:23.154Z,0.13
2019-01-28T21:50:49.861Z,0.11
2019-01-28T21:53:16.523Z,0.12
2019-01-28T21:55:43.116Z,0.18
2019-01-28T21:58:09.754Z,0.25
2019-01-28T22:00:36.437Z,0.30
2019-01-28T22:03:03.068Z,0.34
2019-01-28T22:05:29.694Z,0.37
2019-01-28T22:07:56.551Z,0.38
2019-01-28T22:10:23.210Z,0.40
2019-01-28T22:12:49.790Z,0.30
2019-01-28T22:15:17.881Z,0.26
2019-01-28T22:17:44.454Z,0.37
2019-01-28T22:20:13.770Z,0.30
2019-01-28T22:22:40.404Z,0.33
2019-01-28T22:25:12.193Z,0.36
2019-01-28T22:27:39.325Z,0.41
2019-01-28T22:30:11.809Z,0.45
2019-01-28T22:32:38.562Z,0.40
2019-01-28T22:35:07.581Z,0.40
2019-01-28T22:37:34.376Z,0.42
2019-01-28T22:40:01.200Z,0.39
2019-01-28T22:42:28.020Z,0.34
2019-01-28T22:44:54.739Z,0.41
2019-01-28T22:47:21.467Z,0.36
2019-01-28T22:49:48.126Z,0.39
2019-01-28T22:52:15.271Z,0.50
2019-01-28T22:54:43.889Z,0.50
2019-01-28T22:57:10.424Z,0.38
2019-01-28T22:59:37.704Z,0.38
2019-01-28T23:02:04.379Z,0.51
2019-01-28T23:04:33.157Z,0.52
2019-01-28T23:06:59.969Z,0.51
2019-01-28T23:10:23.134Z,0.48
2019-01-28T23:12:49.699Z,0.56
2019-01-28T23:15:16.357Z,0.61
2019-01-28T23:17:42.926Z,0.57
2019-01-28T23:20:09.786Z,0.64
2019-01-28T23:22:36.463Z,0.61
2019-01-28T23:25:05.293Z,0.64
2019-01-28T23:27:35.056Z,0.58
2019-01-28T23:30:02.036Z,0.60
2019-01-28T23:32:30.148Z,0.60
2019-01-28T23:34:57.485Z,0.56
2019-01-28T23:37:24.471Z,0.55
2019-01-28T23:39:51.479Z,0.57
2019-01-28T23:42:18.568Z,0.59
2019-01-28T23:44:45.490Z,0.60
2019-01-28T23:47:12.517Z,0.61
2019-01-28T23:49:39.700Z,0.67
2019-01-28T23:52:06.876Z,0.67
2019-01-28T23:54:33.902Z,0.69
2019-01-28T23:57:00.807Z,0.63
2019-01-28T23:59:27.934Z,0.64
